Time;durP1;ratioP1;P1;durP2;ratioP2;P2;SDS_P1;SDS_P2;PMS_P1;PMS_P2;Temp;Humidity;BMP_temperature;BMP_pressure;BME280_temperature;BME280_humidity;BME280_pressure;Samples;Min_cycle;Max_cycle;Signal;HPM_P1;HPM_P2
2022/08/15 00:01:25;;;;;;;4.13;3.60;;;23.40;99.90;;;;;;5074813;28;20620;-73
2022/08/15 00:03:56;;;;;;;8.40;4.43;;;23.40;99.90;;;;;;5074433;28;20589;-73
2022/08/15 00:06:36;;;;;;;5.90;3.63;;;23.40;99.90;;;;;;5073997;28;20645;-73
2022/08/15 00:09:05;;;;;;;4.20;3.77;;;23.40;99.90;;;;;;5074349;28;20582;-73
2022/08/15 00:11:39;;;;;;;4.70;4.30;;;23.40;99.90;;;;;;5074619;28;20626;-73
2022/08/15 00:14:31;;;;;;;3.30;3.10;;;23.40;99.90;;;;;;5074744;28;20593;-73
2022/08/15 00:17:01;;;;;;;15.80;4.27;;;23.40;99.90;;;;;;5074943;28;20618;-73
2022/08/15 00:19:30;;;;;;;7.33;3.70;;;23.30;99.90;;;;;;5074889;28;20640;-73
2022/08/15 00:22:01;;;;;;;5.93;4.17;;;23.30;99.90;;;;;;5074693;28;20622;-73
2022/08/15 00:24:30;;;;;;;4.20;3.87;;;23.20;99.90;;;;;;5075251;28;20642;-73
2022/08/15 00:27:00;;;;;;;5.27;4.17;;;23.20;99.90;;;;;;5074759;28;21227;-73
2022/08/15 00:29:31;;;;;;;5.27;3.80;;;23.20;99.90;;;;;;5074302;28;20578;-73
2022/08/15 00:32:01;;;;;;;5.73;4.00;;;23.10;99.90;;;;;;5074881;28;20644;-73
2022/08/15 00:34:28;;;;;;;6.20;4.00;;;23.20;99.90;;;;;;5073615;28;20566;-73
2022/08/15 00:36:54;;;;;;;4.20;3.90;;;23.10;99.90;;;;;;5075923;28;20685;-73
2022/08/15 00:39:23;;;;;;;4.30;3.90;;;23.10;99.90;;;;;;5075553;28;20674;-73
2022/08/15 00:41:51;;;;;;;7.53;4.10;;;23.10;99.90;;;;;;5077157;28;20576;-73
2022/08/15 00:44:25;;;;;;;6.27;4.13;;;23.00;99.90;;;;;;5079195;28;20590;-73
2022/08/15 00:46:58;;;;;;;3.67;3.37;;;23.10;99.90;;;;;;5079705;28;21214;-73
2022/08/15 00:49:27;;;;;;;3.67;3.37;;;23.00;99.90;;;;;;5078857;28;20629;-73
2022/08/15 00:52:21;;;;;;;8.90;4.10;;;23.00;99.90;;;;;;5077996;28;20575;-73
2022/08/15 00:54:56;;;;;;;4.33;3.47;;;23.00;99.90;;;;;;5078308;28;20929;-73
2022/08/15 00:57:31;;;;;;;5.37;3.90;;;22.90;99.90;;;;;;5078287;28;20589;-73
2022/08/15 01:00:05;;;;;;;9.37;3.60;;;22.90;99.90;;;;;;5078819;28;20574;-73
2022/08/15 01:02:34;;;;;;;4.70;3.97;;;22.80;99.90;;;;;;5078944;28;20586;-73
2022/08/15 01:05:02;;;;;;;4.40;4.00;;;22.80;99.90;;;;;;5078537;28;20653;-73
2022/08/15 01:07:29;;;;;;;4.23;3.60;;;22.90;99.90;;;;;;5079848;28;20685;-73
2022/08/15 01:09:56;;;;;;;4.83;4.20;;;22.80;99.90;;;;;;5078275;28;20582;-73
2022/08/15 01:12:26;;;;;;;3.73;3.43;;;22.80;99.90;;;;;;5077719;28;20622;-73
2022/08/15 01:14:59;;;;;;;5.23;4.07;;;22.80;99.90;;;;;;5077679;28;20606;-73
2022/08/15 01:17:29;;;;;;;8.83;4.37;;;22.80;99.90;;;;;;5076644;28;20590;-73
2022/08/15 01:20:08;;;;;;;4.83;4.43;;;22.80;99.90;;;;;;5077547;28;21004;-73
2022/08/15 01:22:55;;;;;;;7.53;4.50;;;22.90;99.90;;;;;;5077432;28;20578;-73
2022/08/15 01:25:27;;;;;;;6.80;3.97;;;22.80;99.90;;;;;;5077139;28;20668;-73
2022/08/15 01:27:59;;;;;;;6.13;4.20;;;22.90;99.90;;;;;;5076988;28;20563;-73
2022/08/15 01:30:40;;;;;;;4.60;3.80;;;22.80;99.90;;;;;;5077145;28;20583;-73
2022/08/15 01:33:07;;;;;;;4.03;3.63;;;22.80;99.90;;;;;;5077283;28;20615;-73
2022/08/15 01:35:34;;;;;;;4.93;3.77;;;22.80;99.90;;;;;;5077064;28;20618;-73
2022/08/15 01:38:02;;;;;;;4.47;4.00;;;22.80;99.90;;;;;;5077506;28;20581;-73
2022/08/15 01:40:52;;;;;;;4.50;4.20;;;22.70;99.90;;;;;;5078400;28;20582;-73
2022/08/15 01:43:24;;;;;;;6.07;4.00;;;22.70;99.90;;;;;;5077930;28;20618;-74
2022/08/15 01:45:53;;;;;;;5.47;3.40;;;22.70;99.90;;;;;;5077849;28;20639;-74
2022/08/15 01:48:27;;;;;;;3.97;3.43;;;22.70;99.90;;;;;;5078537;28;20694;-74
2022/08/15 01:51:00;;;;;;;3.63;3.33;;;22.60;99.90;;;;;;5077004;28;21196;-74
2022/08/15 01:53:26;;;;;;;3.60;3.40;;;22.60;99.90;;;;;;5077137;28;20575;-74
2022/08/15 01:55:59;;;;;;;4.07;3.67;;;22.60;99.90;;;;;;5078002;28;20618;-74
2022/08/15 01:58:27;;;;;;;4.73;4.33;;;22.50;99.90;;;;;;5077737;28;20549;-74
2022/08/15 02:00:57;;;;;;;5.53;4.63;;;22.50;99.90;;;;;;5077647;28;20681;-74
2022/08/15 02:03:33;;;;;;;4.27;2.83;;;22.50;99.90;;;;;;5077313;28;20582;-74
2022/08/15 02:06:06;;;;;;;4.17;3.77;;;22.50;99.90;;;;;;5076049;28;20665;-74
2022/08/15 02:08:32;;;;;;;4.43;3.17;;;22.50;99.90;;;;;;5076283;28;20622;-74
2022/08/15 02:10:59;;;;;;;5.10;3.70;;;22.40;99.90;;;;;;5076992;28;20579;-74
2022/08/15 02:13:26;;;;;;;4.37;4.03;;;22.40;99.90;;;;;;5076471;28;20628;-74
2022/08/15 02:15:53;;;;;;;4.30;3.77;;;22.40;99.90;;;;;;5076353;28;20628;-74
2022/08/15 02:18:20;;;;;;;4.47;4.07;;;22.30;99.90;;;;;;5076724;28;20611;-74
2022/08/15 02:20:46;;;;;;;5.30;4.00;;;22.30;99.90;;;;;;5076531;28;20578;-74
2022/08/15 02:23:13;;;;;;;6.43;3.80;;;22.30;99.90;;;;;;5076928;28;20960;-74
2022/08/15 02:25:39;;;;;;;4.87;3.80;;;22.30;99.90;;;;;;5076210;28;20726;-74
2022/08/15 02:28:06;;;;;;;5.53;3.93;;;22.10;99.90;;;;;;5075478;28;20600;-74
2022/08/15 02:30:34;;;;;;;4.00;3.60;;;22.10;99.90;;;;;;5075406;28;20570;-74
2022/08/15 02:33:03;;;;;;;8.33;4.57;;;22.00;99.90;;;;;;5076933;28;20618;-74
2022/08/15 02:35:30;;;;;;;5.30;4.13;;;21.90;99.90;;;;;;5076990;28;20575;-74
2022/08/15 02:38:01;;;;;;;5.00;3.30;;;21.90;99.90;;;;;;5076226;28;20574;-74
2022/08/15 02:40:28;;;;;;;14.90;4.67;;;21.80;99.90;;;;;;5076426;28;21198;-74
2022/08/15 02:42:56;;;;;;;6.93;4.30;;;21.80;99.90;;;;;;5076902;28;20999;-74
2022/08/15 02:45:22;;;;;;;4.13;3.70;;;21.60;99.90;;;;;;5076163;28;20619;-74
2022/08/15 02:47:49;;;;;;;3.53;3.23;;;21.50;99.90;;;;;;5075518;28;20632;-74
2022/08/15 02:50:17;;;;;;;9.00;4.67;;;21.40;99.90;;;;;;5075813;28;20720;-74
2022/08/15 02:52:48;;;;;;;4.97;4.33;;;21.40;99.90;;;;;;5077068;28;20571;-74
2022/08/15 02:55:15;;;;;;;4.80;4.40;;;21.30;99.90;;;;;;5077515;28;20614;-74
2022/08/15 02:57:42;;;;;;;8.27;4.13;;;21.00;99.90;;;;;;5078294;28;20709;-74
2022/08/15 03:00:15;;;;;;;6.07;4.73;;;20.90;99.90;;;;;;5077948;28;20586;-74
2022/08/15 03:03:10;;;;;;;6.20;4.00;;;20.90;99.90;;;;;;5078528;28;20606;-74
2022/08/15 03:05:40;;;;;;;6.30;4.30;;;20.70;99.90;;;;;;5078094;28;20666;-74
2022/08/15 03:08:07;;;;;;;4.93;4.50;;;20.70;99.90;;;;;;5080128;28;20614;-74
2022/08/15 03:10:35;;;;;;;6.10;4.30;;;20.60;99.90;;;;;;5079668;28;20991;-74
2022/08/15 03:13:10;;;;;;;6.83;4.50;;;20.60;99.90;;;;;;5079103;28;20708;-74
2022/08/15 03:15:44;;;;;;;5.50;5.00;;;20.50;99.90;;;;;;5079726;28;20671;-74
2022/08/15 03:18:12;;;;;;;4.90;4.50;;;20.40;99.90;;;;;;5080441;28;20791;-74
2022/08/15 03:20:39;;;;;;;5.27;4.87;;;20.30;99.90;;;;;;5081177;28;20582;-74
2022/08/15 03:23:08;;;;;;;4.97;4.67;;;20.20;99.90;;;;;;5081409;28;20650;-74
2022/08/15 03:25:54;;;;;;;9.03;4.83;;;20.20;99.90;;;;;;5080068;28;20650;-74
2022/08/15 03:28:24;;;;;;;9.73;4.20;;;20.20;99.90;;;;;;5079685;28;20581;-72
2022/08/15 03:30:51;;;;;;;7.53;5.37;;;20.20;99.90;;;;;;5072832;28;20923;-72
2022/08/15 03:33:18;;;;;;;4.60;4.30;;;20.10;99.90;;;;;;5073386;28;20604;-72
2022/08/15 03:35:47;;;;;;;4.63;4.30;;;20.10;99.90;;;;;;5073153;28;20582;-72
2022/08/15 03:38:14;;;;;;;7.93;4.80;;;20.10;99.90;;;;;;5073009;28;20610;-74
2022/08/15 03:40:43;;;;;;;5.90;5.40;;;20.10;99.90;;;;;;5073004;28;20982;-72
2022/08/15 03:43:13;;;;;;;4.97;4.53;;;20.00;99.90;;;;;;5072923;28;21073;-72
2022/08/15 03:45:45;;;;;;;6.77;5.40;;;20.00;99.90;;;;;;5073034;28;20578;-72
2022/08/15 03:48:12;;;;;;;5.30;4.80;;;19.90;99.90;;;;;;5072815;28;21176;-72
2022/08/15 03:50:38;;;;;;;5.10;4.60;;;19.90;99.90;;;;;;5072747;28;20618;-72
2022/08/15 03:53:09;;;;;;;9.63;5.50;;;19.80;99.90;;;;;;5072732;28;20610;-72
2022/08/15 03:55:38;;;;;;;8.37;5.60;;;19.80;99.90;;;;;;5072940;28;20583;-72
2022/08/15 03:58:05;;;;;;;5.70;5.03;;;19.70;99.90;;;;;;5073475;28;20581;-72
2022/08/15 04:00:36;;;;;;;6.83;5.43;;;19.60;99.90;;;;;;5072664;28;20575;-72
2022/08/15 04:03:06;;;;;;;8.93;5.60;;;19.70;99.90;;;;;;5072849;28;20571;-73
2022/08/15 04:05:34;;;;;;;5.80;5.13;;;19.70;99.90;;;;;;5072615;28;20649;-72
2022/08/15 04:08:06;;;;;;;6.67;5.97;;;19.60;99.90;;;;;;5072488;28;20727;-72
2022/08/15 04:10:33;;;;;;;6.57;5.60;;;19.60;99.90;;;;;;5072528;28;20579;-72
2022/08/15 04:13:01;;;;;;;5.43;5.00;;;19.60;99.90;;;;;;5072325;28;20638;-72
2022/08/15 04:15:27;;;;;;;6.03;4.70;;;19.50;99.90;;;;;;5071249;28;21148;-72
2022/08/15 04:17:55;;;;;;;4.90;4.60;;;19.50;99.90;;;;;;5074300;28;20614;-72
2022/08/15 04:20:22;;;;;;;5.70;5.17;;;19.50;99.90;;;;;;5076485;28;20614;-73
2022/08/15 04:22:49;;;;;;;5.30;4.40;;;19.60;99.90;;;;;;5076145;28;20601;-73
2022/08/15 04:25:27;;;;;;;8.53;4.97;;;19.60;99.90;;;;;;5076246;28;20638;-73
2022/08/15 04:27:56;;;;;;;6.43;5.00;;;19.60;99.90;;;;;;5076564;28;20628;-73
2022/08/15 04:30:26;;;;;;;4.93;4.53;;;19.70;99.90;;;;;;5076024;28;21169;-73
2022/08/15 04:32:54;;;;;;;5.03;4.60;;;19.60;99.90;;;;;;5076524;28;20623;-73
2022/08/15 04:35:21;;;;;;;4.30;4.00;;;19.60;99.90;;;;;;5075858;28;21022;-72
2022/08/15 04:37:48;;;;;;;6.40;4.63;;;19.70;99.90;;;;;;5076175;28;20610;-70
2022/08/15 04:40:14;;;;;;;5.07;4.57;;;19.80;99.90;;;;;;5075850;28;20974;-72
2022/08/15 04:42:55;;;;;;;4.73;4.33;;;19.70;99.90;;;;;;5075835;28;21165;-72
2022/08/15 04:45:22;;;;;;;5.43;4.37;;;19.70;99.90;;;;;;5076068;28;20582;-73
2022/08/15 04:47:50;;;;;;;3.80;3.60;;;19.70;99.90;;;;;;5075913;28;21257;-72
2022/08/15 04:50:17;;;;;;;4.13;3.70;;;19.80;99.90;;;;;;5076158;28;20675;-73
2022/08/15 04:52:53;;;;;;;4.57;3.83;;;19.80;99.90;;;;;;5074578;28;21221;-73
2022/08/15 04:55:20;;;;;;;5.20;3.70;;;19.80;99.90;;;;;;5075989;28;20573;-72
2022/08/15 04:57:47;;;;;;;3.77;3.43;;;19.80;99.90;;;;;;5076085;28;20587;-70
2022/08/15 05:00:17;;;;;;;9.20;3.63;;;19.70;99.90;;;;;;5076110;28;20608;-72
2022/08/15 05:03:05;;;;;;;3.80;3.50;;;19.80;99.90;;;;;;5075783;28;20622;-72
2022/08/15 05:05:34;;;;;;;4.57;4.17;;;19.90;99.90;;;;;;5075548;28;21060;-72
2022/08/15 05:08:02;;;;;;;11.73;3.80;;;19.90;99.90;;;;;;5074213;28;20657;-72
2022/08/15 05:10:29;;;;;;;8.33;4.93;;;19.80;99.90;;;;;;5075449;28;20626;-71
2022/08/15 05:12:55;;;;;;;5.57;4.00;;;19.70;99.90;;;;;;5074182;28;20618;-72
2022/08/15 05:15:22;;;;;;;3.77;3.37;;;19.70;99.90;;;;;;5075549;28;20568;-71
2022/08/15 05:17:49;;;;;;;4.10;3.57;;;19.70;99.90;;;;;;5075834;28;20641;-73
2022/08/15 05:20:18;;;;;;;3.80;3.57;;;19.60;99.90;;;;;;5075792;28;20961;-71
2022/08/15 05:22:58;;;;;;;4.73;4.33;;;19.70;99.90;;;;;;5074001;28;20622;-72
2022/08/15 05:25:25;;;;;;;6.23;4.37;;;19.80;99.90;;;;;;5074975;28;20654;-72
2022/08/15 05:27:52;;;;;;;3.77;3.47;;;19.70;99.90;;;;;;5074706;28;20634;-72
2022/08/15 05:30:20;;;;;;;4.10;3.80;;;19.60;99.90;;;;;;5073675;28;20618;-72
2022/08/15 05:32:47;;;;;;;5.73;4.27;;;19.50;99.90;;;;;;5075403;28;20692;-71
2022/08/15 05:35:15;;;;;;;5.27;4.50;;;19.60;99.90;;;;;;5074781;28;20614;-71
2022/08/15 05:37:44;;;;;;;6.90;4.63;;;19.60;99.90;;;;;;5075416;28;20982;-72
2022/08/15 05:40:10;;;;;;;6.87;4.70;;;19.50;99.90;;;;;;5074707;28;20679;-72
2022/08/15 05:42:49;;;;;;;5.17;4.40;;;19.50;99.90;;;;;;5074779;28;20625;-72
2022/08/15 05:45:27;;;;;;;4.73;4.33;;;19.40;99.90;;;;;;5075127;28;20980;-72
2022/08/15 05:47:57;;;;;;;5.53;4.90;;;19.30;99.90;;;;;;5074926;28;20707;-71
2022/08/15 05:50:36;;;;;;;5.17;4.40;;;19.20;99.90;;;;;;5074873;28;20621;-71
2022/08/15 05:53:11;;;;;;;6.17;5.17;;;19.30;99.90;;;;;;5074718;28;20594;-71
2022/08/15 05:56:13;;;;;;;7.30;5.07;;;19.30;99.90;;;;;;5074556;28;20755;-72
2022/08/15 05:58:49;;;;;;;6.03;4.97;;;19.30;99.90;;;;;;5074939;28;20629;-72
2022/08/15 06:01:28;;;;;;;5.93;5.10;;;19.20;99.90;;;;;;5074475;28;20635;-72
2022/08/15 06:04:10;;;;;;;6.27;5.60;;;19.20;99.90;;;;;;5073097;28;20686;-72
2022/08/15 06:06:41;;;;;;;5.90;5.50;;;19.20;99.90;;;;;;5074331;28;20658;-72
2022/08/15 06:09:39;;;;;;;6.00;5.50;;;19.10;99.90;;;;;;5074563;28;20626;-72
2022/08/15 06:12:16;;;;;;;5.33;4.93;;;19.10;99.90;;;;;;5074842;28;20586;-71
2022/08/15 06:14:46;;;;;;;9.77;5.23;;;19.10;99.90;;;;;;5074258;28;20696;-71
2022/08/15 06:17:25;;;;;;;7.50;5.63;;;19.20;99.90;;;;;;5074314;28;20625;-72
2022/08/15 06:19:52;;;;;;;5.73;5.33;;;19.10;99.90;;;;;;5074325;28;20629;-72
2022/08/15 06:22:47;;;;;;;6.30;5.80;;;19.10;99.90;;;;;;5073472;28;20636;-71
2022/08/15 06:25:23;;;;;;;5.20;4.73;;;19.20;99.90;;;;;;5074195;28;20688;-71
2022/08/15 06:27:52;;;;;;;5.93;5.37;;;19.30;99.90;;;;;;5073808;28;21180;-72
2022/08/15 06:30:25;;;;;;;5.70;5.30;;;19.60;99.90;;;;;;5073848;28;20629;-71
2022/08/15 06:33:24;;;;;;;5.63;5.13;;;19.50;99.90;;;;;;5073983;28;20566;-72
2022/08/15 06:36:10;;;;;;;6.10;5.10;;;19.60;99.90;;;;;;5073816;28;20676;-72
2022/08/15 06:38:50;;;;;;;5.80;5.20;;;19.70;99.90;;;;;;5074308;28;20618;-72
2022/08/15 06:41:27;;;;;;;5.60;5.10;;;19.70;99.90;;;;;;5073439;28;20622;-72
2022/08/15 06:43:56;;;;;;;5.67;5.30;;;19.80;99.90;;;;;;5073651;28;20587;-71
2022/08/15 06:46:27;;;;;;;6.40;4.97;;;19.80;99.90;;;;;;5073933;28;20965;-71
2022/08/15 06:48:54;;;;;;;6.83;6.13;;;19.90;99.90;;;;;;5074033;28;20611;-69
2022/08/15 06:51:22;;;;;;;4.70;4.40;;;20.20;99.90;;;;;;5073863;28;20606;-69
2022/08/15 06:53:54;;;;;;;4.80;4.50;;;20.20;99.90;;;;;;5073655;28;20610;-69
2022/08/15 06:56:24;;;;;;;5.30;4.70;;;20.00;99.90;;;;;;5073274;28;20763;-70
2022/08/15 06:59:08;;;;;;;4.63;4.20;;;20.10;99.90;;;;;;5073678;28;20548;-70
2022/08/15 07:01:51;;;;;;;6.80;4.83;;;20.10;99.90;;;;;;5073764;28;20610;-70
2022/08/15 07:04:25;;;;;;;5.47;5.07;;;20.00;99.90;;;;;;5073800;28;20581;-70
2022/08/15 07:07:01;;;;;;;7.70;5.10;;;19.90;99.90;;;;;;5073433;28;21243;-70
2022/08/15 07:09:33;;;;;;;7.40;4.47;;;20.00;99.90;;;;;;5073397;28;20616;-70
2022/08/15 07:12:07;;;;;;;5.03;4.60;;;20.10;99.90;;;;;;5073390;28;20964;-70
2022/08/15 07:14:55;;;;;;;5.17;4.77;;;20.20;99.90;;;;;;5073456;28;20721;-69
2022/08/15 07:17:37;;;;;;;4.33;3.90;;;20.10;99.90;;;;;;5073402;28;20639;-70
2022/08/15 07:20:06;;;;;;;3.80;3.60;;;20.20;99.90;;;;;;5073173;28;20611;-70
2022/08/15 07:22:34;;;;;;;6.00;3.50;;;20.10;99.90;;;;;;5073470;28;21014;-70
2022/08/15 07:25:01;;;;;;;4.70;4.30;;;20.20;99.90;;;;;;5073185;28;20687;-70
2022/08/15 07:27:31;;;;;;;6.90;3.30;;;20.20;99.90;;;;;;5073326;28;21029;-70
2022/08/15 07:30:18;;;;;;;3.07;2.87;;;20.40;99.90;;;;;;5072963;28;20598;-70
2022/08/15 07:32:51;;;;;;;4.23;3.80;;;20.40;99.90;;;;;;5073211;28;20944;-70
2022/08/15 07:35:34;;;;;;;3.53;3.33;;;20.50;99.90;;;;;;5073167;28;20667;-70
2022/08/15 07:38:05;;;;;;;3.80;3.10;;;20.60;99.90;;;;;;5072756;28;21031;-69
2022/08/15 07:40:43;;;;;;;3.33;3.13;;;20.60;99.90;;;;;;5072845;28;20984;-70
2022/08/15 07:43:30;;;;;;;4.10;3.80;;;20.70;99.90;;;;;;5072918;28;20629;-69
2022/08/15 07:46:13;;;;;;;2.90;2.80;;;21.00;99.90;;;;;;5072797;28;20684;-69
2022/08/15 07:48:40;;;;;;;3.60;3.30;;;21.10;99.90;;;;;;5072774;28;20672;-70
2022/08/15 07:51:18;;;;;;;3.03;2.83;;;21.30;99.90;;;;;;5073229;28;20946;-69
2022/08/15 07:53:49;;;;;;;6.20;4.00;;;21.50;99.90;;;;;;5077590;28;20596;-69
2022/08/15 07:56:16;;;;;;;3.40;3.10;;;21.40;99.90;;;;;;5077128;28;20574;-70
2022/08/15 07:58:44;;;;;;;3.33;3.10;;;21.10;99.90;;;;;;5077033;28;20626;-70
2022/08/15 08:01:23;;;;;;;3.40;3.20;;;21.30;99.90;;;;;;5076921;28;20629;-69
2022/08/15 08:03:57;;;;;;;4.37;4.07;;;21.40;99.90;;;;;;5076945;28;20626;-70
2022/08/15 08:06:40;;;;;;;4.60;3.50;;;21.20;99.90;;;;;;5076723;28;21234;-69
2022/08/15 08:09:39;;;;;;;3.30;3.10;;;21.40;99.90;;;;;;5076885;28;20973;-70
2022/08/15 08:12:28;;;;;;;3.07;2.87;;;21.40;99.90;;;;;;5071498;28;20633;-70
2022/08/15 08:15:14;;;;;;;3.10;2.90;;;21.30;99.90;;;;;;5075230;28;20614;-70
2022/08/15 08:18:01;;;;;;;5.33;3.10;;;21.30;99.90;;;;;;5076627;28;20615;-70
2022/08/15 08:20:34;;;;;;;3.00;2.80;;;21.10;99.90;;;;;;5075071;28;20985;-70
2022/08/15 08:23:15;;;;;;;3.10;3.00;;;20.90;99.90;;;;;;5076787;28;20606;-69
2022/08/15 08:26:11;;;;;;;3.40;3.07;;;20.90;99.90;;;;;;5076572;28;20653;-70
2022/08/15 08:29:00;;;;;;;3.60;3.30;;;20.90;99.90;;;;;;5067872;28;20700;-69
2022/08/15 08:31:36;;;;;;;3.70;3.40;;;21.00;99.90;;;;;;5076319;28;20590;-70
2022/08/15 08:34:18;;;;;;;2.93;2.83;;;21.10;99.90;;;;;;5076436;28;20970;-70
2022/08/15 08:37:24;;;;;;;3.37;3.17;;;21.60;99.90;;;;;;5076036;28;20625;-70
2022/08/15 08:39:53;;;;;;;5.87;3.23;;;22.40;99.90;;;;;;5076428;28;20609;-70
2022/08/15 08:42:39;;;;;;;2.50;2.40;;;22.80;99.90;;;;;;5076020;28;20741;-70
2022/08/15 08:45:15;;;;;;;2.57;2.47;;;22.80;99.90;;;;;;5076467;28;20632;-70
2022/08/15 08:48:05;;;;;;;2.60;2.50;;;22.70;99.90;;;;;;5075878;28;20641;-70
2022/08/15 08:50:52;;;;;;;2.57;2.47;;;22.60;99.90;;;;;;5072598;28;20630;-70
2022/08/15 08:54:01;;;;;;;3.37;3.03;;;22.80;99.90;;;;;;5075634;28;21012;-70
2022/08/15 08:56:33;;;;;;;4.50;3.00;;;22.30;99.90;;;;;;5066809;28;20622;-70
2022/08/15 08:59:32;;;;;;;2.53;2.40;;;22.90;99.90;;;;;;5075737;28;20574;-70
2022/08/15 09:02:09;;;;;;;2.73;2.50;;;22.50;99.90;;;;;;5071550;28;20638;-70
2022/08/15 09:04:44;;;;;;;2.67;2.47;;;23.00;99.90;;;;;;5075795;28;20578;-70
2022/08/15 09:07:19;;;;;;;3.20;3.00;;;23.00;99.90;;;;;;5075687;28;20637;-70
2022/08/15 09:09:50;;;;;;;3.20;3.00;;;23.50;99.90;;;;;;5075896;28;20580;-70
2022/08/15 09:15:25;;;;;;;7.33;2.73;;;23.10;99.90;;;;;;5075820;28;20963;-70
2022/08/15 09:17:55;;;;;;;5.73;2.47;;;22.60;99.90;;;;;;5075329;28;21040;-70
2022/08/15 09:20:27;;;;;;;4.73;2.60;;;23.20;99.90;;;;;;5075184;28;20578;-70
2022/08/15 09:22:55;;;;;;;2.90;2.70;;;23.20;99.90;;;;;;5075593;28;20581;-70
2022/08/15 09:25:24;;;;;;;8.70;2.73;;;23.20;99.90;;;;;;5073619;28;20646;-70
2022/08/15 09:27:54;;;;;;;3.63;2.80;;;23.50;99.90;;;;;;5075318;28;20681;-70
2022/08/15 09:30:21;;;;;;;2.23;2.03;;;23.60;99.90;;;;;;5075217;28;20574;-70
2022/08/15 09:33:26;;;;;;;2.50;2.40;;;23.60;99.90;;;;;;5075233;28;21243;-70
2022/08/15 09:36:22;;;;;;;3.80;2.63;;;23.60;99.90;;;;;;5052708;28;20629;-70
2022/08/15 09:39:16;;;;;;;2.93;2.60;;;23.90;99.90;;;;;;5053201;28;20591;-70
2022/08/15 09:42:06;;;;;;;4.77;2.50;;;24.20;99.90;;;;;;5071906;28;21027;-70
2022/08/15 09:44:49;;;;;;;4.90;2.53;;;25.00;99.90;;;;;;5075097;28;21148;-70
2022/08/15 09:47:42;;;;;;;3.97;2.57;;;24.80;99.90;;;;;;5075843;28;21192;-70
2022/08/15 09:50:27;;;;;;;4.30;2.73;;;25.30;99.90;;;;;;5074690;28;20585;-70
2022/08/15 09:53:24;;;;;;;2.57;2.37;;;25.10;99.90;;;;;;5075169;28;20582;-70
2022/08/15 09:55:52;;;;;;;4.53;2.80;;;24.30;99.90;;;;;;5074169;28;20617;-70
2022/08/15 09:58:23;;;;;;;6.30;3.17;;;24.70;99.90;;;;;;5074801;28;21011;-70
2022/08/15 10:01:03;;;;;;;2.60;2.50;;;24.80;99.90;;;;;;5074859;28;20571;-70
2022/08/15 10:03:54;;;;;;;3.90;2.90;;;24.60;99.90;;;;;;5074595;28;21108;-70
2022/08/15 10:06:28;;;;;;;3.07;2.87;;;24.50;99.90;;;;;;5074412;28;20650;-70
2022/08/15 10:08:55;;;;;;;3.40;3.13;;;24.60;99.90;;;;;;5074946;28;21023;-70
2022/08/15 10:11:46;;;;;;;4.20;3.90;;;25.00;99.90;;;;;;5074841;28;20729;-70
2022/08/15 10:14:21;;;;;;;3.33;3.10;;;25.10;99.90;;;;;;5063468;28;21257;-70
2022/08/15 10:16:53;;;;;;;3.00;2.70;;;25.30;99.90;;;;;;5073055;28;20621;-70
2022/08/15 10:19:38;;;;;;;2.90;2.70;;;25.00;99.90;;;;;;5074108;28;20626;-70
2022/08/15 10:22:24;;;;;;;2.70;2.50;;;24.90;99.90;;;;;;5074057;28;21113;-71
2022/08/15 10:25:18;;;;;;;3.47;2.80;;;25.20;99.90;;;;;;5074011;28;20648;-70
2022/08/15 10:27:56;;;;;;;3.20;3.00;;;25.20;99.90;;;;;;5074343;28;20658;-70
2022/08/15 10:30:27;;;;;;;5.00;3.13;;;24.80;99.90;;;;;;5074095;28;20632;-70
2022/08/15 10:32:53;;;;;;;2.80;2.60;;;25.00;99.90;;;;;;5074144;28;20618;-70
2022/08/15 10:35:28;;;;;;;3.93;2.93;;;25.30;99.90;;;;;;5073902;28;20567;-69
2022/08/15 10:38:00;;;;;;;2.77;2.57;;;25.50;99.90;;;;;;5074439;28;20573;-70
2022/08/15 10:40:57;;;;;;;3.70;2.93;;;25.50;99.90;;;;;;5074224;28;20567;-70
2022/08/15 10:43:59;;;;;;;5.10;3.00;;;25.50;99.90;;;;;;5074299;28;20949;-69
2022/08/15 10:46:38;;;;;;;3.17;2.97;;;25.50;99.90;;;;;;5063177;28;20633;-69
2022/08/15 10:49:33;;;;;;;2.63;2.40;;;25.30;99.90;;;;;;5073706;28;20664;-69
2022/08/15 10:52:19;;;;;;;2.90;2.70;;;24.90;99.90;;;;;;5072024;28;20626;-70
2022/08/15 10:55:20;;;;;;;3.30;2.90;;;25.20;99.90;;;;;;5073560;28;20551;-70
2022/08/15 10:57:55;;;;;;;2.83;2.70;;;25.70;99.90;;;;;;5068926;28;21317;-71
2022/08/15 11:00:38;;;;;;;2.80;2.60;;;25.70;99.90;;;;;;5073595;28;20633;-71
2022/08/15 11:03:29;;;;;;;2.77;2.57;;;25.60;99.90;;;;;;5073723;28;21154;-71
2022/08/15 11:06:03;;;;;;;4.43;3.00;;;25.80;99.90;;;;;;5073925;28;20707;-71
2022/08/15 11:08:30;;;;;;;2.60;2.50;;;26.00;99.90;;;;;;5072574;28;20989;-71
2022/08/15 11:11:07;;;;;;;3.27;3.07;;;25.70;99.90;;;;;;5073457;28;21010;-70
2022/08/15 11:13:36;;;;;;;2.77;2.63;;;26.20;99.90;;;;;;5073603;28;21117;-70
2022/08/15 11:16:13;;;;;;;3.37;2.60;;;25.70;99.90;;;;;;5073177;28;20610;-70
2022/08/15 11:18:50;;;;;;;2.93;2.53;;;27.20;99.90;;;;;;5071936;28;20954;-70
2022/08/15 11:21:19;;;;;;;3.63;2.90;;;27.20;99.90;;;;;;5073352;28;20951;-70
2022/08/15 11:24:01;;;;;;;5.53;2.70;;;27.00;99.90;;;;;;5073256;28;20654;-70
2022/08/15 11:26:32;;;;;;;3.10;3.00;;;27.40;99.90;;;;;;5070851;28;20629;-70
2022/08/15 11:29:15;;;;;;;2.90;2.80;;;28.20;99.90;;;;;;5072989;28;20727;-70
2022/08/15 11:31:52;;;;;;;3.23;3.03;;;28.30;99.90;;;;;;5072931;28;20922;-69
2022/08/15 11:34:41;;;;;;;2.73;2.53;;;28.30;99.90;;;;;;5072935;28;21069;-71
2022/08/15 11:37:24;;;;;;;8.33;3.60;;;27.40;99.90;;;;;;5073008;28;21165;-69
2022/08/15 11:40:17;;;;;;;3.63;3.37;;;27.60;99.90;;;;;;5071711;28;21035;-69
2022/08/15 11:42:46;;;;;;;4.53;3.40;;;28.60;99.90;;;;;;5073474;28;20689;-69
2022/08/15 11:45:22;;;;;;;3.33;3.13;;;29.70;99.90;;;;;;5072659;28;20586;-69
2022/08/15 11:47:52;;;;;;;3.23;2.83;;;29.40;99.90;;;;;;5072732;28;20788;-69
2022/08/15 11:50:40;;;;;;;4.20;3.13;;;29.70;99.90;;;;;;5073025;28;20637;-69
2022/08/15 11:53:10;;;;;;;3.43;3.23;;;30.00;99.90;;;;;;5073060;28;20627;-69
2022/08/15 11:55:38;;;;;;;4.63;3.50;;;30.20;99.90;;;;;;5072831;28;20625;-69
2022/08/15 11:58:13;;;;;;;3.37;3.17;;;30.90;99.90;;;;;;5072675;28;20625;-69
2022/08/15 12:00:44;;;;;;;3.30;3.10;;;30.00;99.90;;;;;;5072880;28;20578;-69
2022/08/15 12:03:31;;;;;;;5.97;3.00;;;28.80;99.90;;;;;;5072564;28;20603;-69
2022/08/15 12:06:28;;;;;;;3.03;2.93;;;28.10;99.90;;;;;;5072630;28;20634;-70
2022/08/15 12:09:08;;;;;;;11.17;3.80;;;28.00;99.90;;;;;;5072882;28;20753;-68
2022/08/15 12:11:45;;;;;;;4.00;3.33;;;27.90;99.90;;;;;;5072719;28;20936;-68
2022/08/15 12:14:20;;;;;;;3.67;3.37;;;28.70;99.90;;;;;;5071242;28;20976;-69
2022/08/15 12:16:52;;;;;;;3.57;3.37;;;27.80;99.90;;;;;;5072880;28;20971;-69
2022/08/15 12:19:37;;;;;;;3.63;3.33;;;28.40;99.90;;;;;;5073104;28;20622;-69
2022/08/15 12:22:14;;;;;;;3.80;3.63;;;29.10;99.90;;;;;;5072491;28;21135;-69
2022/08/15 12:24:43;;;;;;;4.27;3.93;;;30.20;99.90;;;;;;5072209;28;21009;-69
2022/08/15 12:27:11;;;;;;;3.57;3.27;;;31.30;99.90;;;;;;5072846;28;20652;-69
2022/08/15 12:29:39;;;;;;;4.10;3.80;;;31.90;99.90;;;;;;5071553;28;21236;-69
2022/08/15 12:32:09;;;;;;;3.40;3.20;;;31.90;99.90;;;;;;5073005;28;20574;-69
2022/08/15 12:34:56;;;;;;;3.83;3.50;;;31.00;99.90;;;;;;5072636;28;20597;-69
2022/08/15 12:37:25;;;;;;;3.80;3.57;;;30.60;99.90;;;;;;5072766;28;20589;-69
2022/08/15 12:39:55;;;;;;;3.57;3.37;;;30.40;99.90;;;;;;5076271;28;20582;-69
2022/08/15 12:42:24;;;;;;;3.47;3.27;;;29.40;99.90;;;;;;5076091;28;20641;-69
2022/08/15 12:44:54;;;;;;;3.53;3.33;;;28.50;99.90;;;;;;5076318;28;21131;-69
2022/08/15 12:47:21;;;;;;;3.13;2.93;;;29.70;99.90;;;;;;5076136;28;20937;-69
2022/08/15 12:49:49;;;;;;;5.30;3.57;;;29.10;99.90;;;;;;5076532;28;20648;-69
2022/08/15 12:52:17;;;;;;;3.30;3.00;;;29.50;99.90;;;;;;5076195;28;20686;-69
2022/08/15 12:54:43;;;;;;;3.40;3.00;;;30.20;99.90;;;;;;5076310;28;20614;-70
2022/08/15 12:57:10;;;;;;;3.87;3.57;;;30.60;99.90;;;;;;5076668;28;20583;-70
2022/08/15 12:59:36;;;;;;;4.03;3.30;;;31.20;99.90;;;;;;5076759;28;20972;-70
2022/08/15 13:02:04;;;;;;;3.50;3.20;;;31.70;99.90;;;;;;5075941;28;20571;-70
2022/08/15 13:04:30;;;;;;;4.73;3.43;;;32.20;99.90;;;;;;5075393;28;20622;-71
2022/08/15 13:06:59;;;;;;;3.57;3.27;;;31.20;99.90;;;;;;5075923;28;20575;-70
2022/08/15 13:09:31;;;;;;;3.43;3.33;;;30.30;99.90;;;;;;5076466;28;20658;-70
2022/08/15 13:12:01;;;;;;;4.20;3.90;;;29.20;99.90;;;;;;5076801;28;20633;-70
2022/08/15 13:14:29;;;;;;;4.33;3.93;;;29.00;99.90;;;;;;5075974;28;20622;-71
2022/08/15 13:16:57;;;;;;;3.90;3.70;;;28.50;99.90;;;;;;5076205;28;21168;-71
2022/08/15 13:19:30;;;;;;;3.67;3.47;;;28.10;99.90;;;;;;5075814;28;20626;-71
2022/08/15 13:24:42;;;;;;;5.27;3.73;;;27.30;99.90;;;;;;5075488;28;21311;-71
2022/08/15 13:27:09;;;;;;;6.97;4.43;;;26.30;99.90;;;;;;5075525;28;21193;-71
2022/08/15 13:29:39;;;;;;;6.80;4.50;;;25.80;99.90;;;;;;5075973;28;20683;-71